Time;durP1;ratioP1;P1;durP2;ratioP2;P2;SDS_P1;SDS_P2;PMS_P1;PMS_P2;Temp;Humidity;BMP_temperature;BMP_pressure;BME280_temperature;BME280_humidity;BME280_pressure;Samples;Min_cycle;Max_cycle;Signal;HPM_P1;HPM_P2
2022/09/04 00:01:18;;;;;;;4.63;4.13;;;;;;;;;;5046370;28;20220;-64
2022/09/04 00:04:06;;;;;;;4.40;4.00;;;;;;;;;;5053022;28;20239;-65
2022/09/04 00:06:41;;;;;;;4.90;4.10;;;;;;;;;;5040048;28;20187;-65
2022/09/04 00:09:16;;;;;;;3.87;3.37;;;;;;;;;;5030684;28;20221;-65
2022/09/04 00:12:05;;;;;;;5.90;3.70;;;;;;;;;;5052894;28;20213;-64
2022/09/04 00:14:51;;;;;;;4.83;3.97;;;;;;;;;;5040792;28;20218;-65
2022/09/04 00:17:40;;;;;;;5.07;3.97;;;;;;;;;;5052023;28;20205;-64
2022/09/04 00:20:12;;;;;;;3.47;3.17;;;;;;;;;;5034127;28;20202;-65
2022/09/04 00:22:59;;;;;;;3.50;3.20;;;;;;;;;;5053130;28;20533;-65
2022/09/04 00:25:47;;;;;;;3.60;3.30;;;;;;;;;;5048135;28;20186;-64
2022/09/04 00:28:44;;;;;;;3.40;3.10;;;;;;;;;;5055983;28;20193;-65
2022/09/04 00:31:35;;;;;;;5.70;3.93;;;;;;;;;;5045475;28;20544;-65
2022/09/04 00:34:13;;;;;;;5.60;3.40;;;;;;;;;;5049281;28;20182;-65
2022/09/04 00:36:52;;;;;;;3.67;3.30;;;;;;;;;;5053051;28;20667;-65
2022/09/04 00:39:35;;;;;;;3.80;3.40;;;;;;;;;;5041465;28;20216;-65
2022/09/04 00:42:27;;;;;;;3.60;3.00;;;;;;;;;;5046044;28;20190;-65
2022/09/04 00:45:06;;;;;;;5.40;4.03;;;;;;;;;;5048099;28;20325;-65
2022/09/04 00:48:02;;;;;;;3.77;3.40;;;;;;;;;;5043856;28;20667;-65
2022/09/04 00:50:49;;;;;;;4.67;3.40;;;;;;;;;;5038687;28;20699;-64
2022/09/04 00:53:21;;;;;;;6.13;3.37;;;;;;;;;;5054111;28;20221;-64
2022/09/04 00:56:06;;;;;;;3.20;2.90;;;;;;;;;;5051290;28;20198;-64
2022/09/04 00:58:43;;;;;;;3.73;3.30;;;;;;;;;;5033844;28;20277;-65
2022/09/04 01:01:21;;;;;;;3.77;3.37;;;;;;;;;;5036067;28;20268;-65
2022/09/04 01:04:09;;;;;;;3.57;3.17;;;;;;;;;;5053864;28;20205;-64
2022/09/04 01:06:57;;;;;;;3.60;3.30;;;;;;;;;;5067146;28;20681;-65
2022/09/04 01:09:32;;;;;;;3.23;2.90;;;;;;;;;;5048741;28;20214;-65
2022/09/04 01:12:20;;;;;;;3.57;3.20;;;;;;;;;;5050400;28;20224;-65
2022/09/04 01:14:55;;;;;;;4.97;2.97;;;;;;;;;;5047408;28;20207;-65
2022/09/04 01:17:31;;;;;;;3.03;2.73;;;;;;;;;;5052439;28;20687;-65
2022/09/04 01:20:11;;;;;;;3.67;3.10;;;;;;;;;;5050033;28;20202;-65
2022/09/04 01:22:56;;;;;;;3.90;3.37;;;;;;;;;;5061453;28;20236;-65
2022/09/04 01:25:46;;;;;;;3.23;2.80;;;;;;;;;;5045657;28;20190;-65
2022/09/04 01:28:32;;;;;;;3.50;3.10;;;;;;;;;;5048431;28;20665;-65
2022/09/04 01:31:12;;;;;;;3.27;2.93;;;;;;;;;;5050275;28;20241;-65
2022/09/04 01:34:02;;;;;;;3.70;3.40;;;;;;;;;;5049851;28;20210;-65
2022/09/04 01:36:50;;;;;;;3.50;2.83;;;;;;;;;;5055457;28;20194;-65
2022/09/04 01:39:22;;;;;;;3.87;3.47;;;;;;;;;;5063093;28;20286;-65
2022/09/04 01:42:11;;;;;;;3.90;3.20;;;;;;;;;;5030570;28;20210;-65
2022/09/04 01:44:40;;;;;;;3.67;3.07;;;;;;;;;;5055004;28;20238;-65
2022/09/04 01:47:55;;;;;;;3.03;2.73;;;;;;;;;;5041507;28;20190;-65
2022/09/04 01:50:27;;;;;;;3.20;2.83;;;;;;;;;;5006613;28;20390;-65
2022/09/04 01:53:13;;;;;;;4.60;3.00;;;;;;;;;;5003584;28;20282;-65
2022/09/04 01:56:03;;;;;;;3.30;2.97;;;;;;;;;;4990307;28;20212;-65
2022/09/04 01:58:57;;;;;;;4.80;3.00;;;;;;;;;;5009421;28;20207;-65
2022/09/04 02:01:43;;;;;;;4.60;2.80;;;;;;;;;;4990345;28;20239;-64
2022/09/04 02:04:31;;;;;;;3.47;3.07;;;;;;;;;;5004684;28;20588;-65
2022/09/04 02:07:30;;;;;;;4.63;3.07;;;;;;;;;;5003076;28;20199;-65
2022/09/04 02:10:08;;;;;;;3.43;3.13;;;;;;;;;;5011875;28;20247;-65
2022/09/04 02:12:57;;;;;;;3.03;2.83;;;;;;;;;;5007857;28;20328;-64
2022/09/04 02:15:48;;;;;;;4.03;2.97;;;;;;;;;;5010960;28;20206;-65
2022/09/04 02:18:34;;;;;;;3.40;3.10;;;;;;;;;;5012111;28;20775;-65
2022/09/04 02:21:10;;;;;;;3.50;3.20;;;;;;;;;;5033933;28;20225;-65
2022/09/04 02:24:13;;;;;;;3.27;2.97;;;;;;;;;;5062620;28;20616;-65
2022/09/04 02:27:18;;;;;;;3.43;3.13;;;;;;;;;;5044645;28;20214;-65
2022/09/04 02:30:05;;;;;;;3.73;3.37;;;;;;;;;;5063059;28;20221;-65
2022/09/04 02:32:59;;;;;;;3.13;2.83;;;;;;;;;;5048973;28;20343;-65
2022/09/04 02:35:39;;;;;;;3.23;3.03;;;;;;;;;;5070753;28;20537;-65
2022/09/04 02:38:27;;;;;;;3.13;2.80;;;;;;;;;;5048031;28;20217;-65
2022/09/04 02:41:05;;;;;;;3.57;3.00;;;;;;;;;;5049361;28;20194;-64
2022/09/04 02:43:34;;;;;;;3.37;3.07;;;;;;;;;;5045836;28;20213;-65
2022/09/04 02:46:27;;;;;;;3.17;2.87;;;;;;;;;;5048582;28;20577;-64
2022/09/04 02:49:15;;;;;;;3.00;2.80;;;;;;;;;;5065423;28;20674;-65
2022/09/04 02:51:54;;;;;;;3.40;3.10;;;;;;;;;;5049989;28;20202;-64
2022/09/04 02:54:44;;;;;;;3.00;2.70;;;;;;;;;;5042031;28;20251;-65
2022/09/04 02:57:43;;;;;;;3.00;2.80;;;;;;;;;;5050622;28;20186;-64
2022/09/04 03:00:20;;;;;;;4.00;3.00;;;;;;;;;;5056068;28;20974;-65
2022/09/04 03:03:20;;;;;;;3.17;2.87;;;;;;;;;;5041369;28;20293;-65
2022/09/04 03:05:56;;;;;;;2.80;2.60;;;;;;;;;;5050958;28;20205;-64
2022/09/04 03:08:46;;;;;;;3.90;3.30;;;;;;;;;;5054218;28;20208;-65
2022/09/04 03:11:35;;;;;;;2.90;2.70;;;;;;;;;;5025695;28;20237;-64
2022/09/04 03:14:15;;;;;;;2.80;2.37;;;;;;;;;;5059664;28;20214;-65
2022/09/04 03:16:47;;;;;;;3.27;2.70;;;;;;;;;;5049453;28;20248;-64
2022/09/04 03:19:33;;;;;;;3.10;2.80;;;;;;;;;;5050321;28;20197;-65
2022/09/04 03:22:16;;;;;;;2.70;2.50;;;;;;;;;;5059029;28;20514;-64
2022/09/04 03:25:03;;;;;;;3.20;2.73;;;;;;;;;;5061537;28;20202;-65
2022/09/04 03:27:36;;;;;;;2.90;2.63;;;;;;;;;;5040691;28;20211;-64
2022/09/04 03:30:13;;;;;;;3.97;2.57;;;;;;;;;;5046100;28;20221;-65
2022/09/04 03:32:56;;;;;;;2.73;2.53;;;;;;;;;;5041659;28;20218;-65
2022/09/04 03:35:42;;;;;;;3.10;2.73;;;;;;;;;;5059334;28;20185;-65
2022/09/04 03:38:17;;;;;;;2.90;2.37;;;;;;;;;;5030355;28;20206;-65
2022/09/04 03:40:56;;;;;;;3.07;2.60;;;;;;;;;;5049143;28;20222;-65
2022/09/04 03:43:38;;;;;;;3.30;2.60;;;;;;;;;;5044939;28;20206;-65
2022/09/04 03:46:10;;;;;;;4.47;2.50;;;;;;;;;;5055201;28;20237;-66
2022/09/04 03:49:04;;;;;;;3.27;2.23;;;;;;;;;;5051826;28;20201;-65
2022/09/04 03:51:51;;;;;;;3.23;2.47;;;;;;;;;;5045372;28;20234;-65
2022/09/04 03:54:22;;;;;;;2.70;2.50;;;;;;;;;;5035348;28;20786;-65
2022/09/04 03:57:15;;;;;;;2.60;2.40;;;;;;;;;;5047899;28;20194;-65
2022/09/04 04:00:04;;;;;;;3.63;2.90;;;;;;;;;;5048571;28;20202;-65
2022/09/04 04:02:54;;;;;;;3.27;2.57;;;;;;;;;;5021492;28;20221;-65
2022/09/04 04:05:27;;;;;;;2.93;2.73;;;;;;;;;;5042680;28;20250;-65
2022/09/04 04:08:13;;;;;;;2.60;2.40;;;;;;;;;;5058401;28;20198;-65
2022/09/04 04:10:56;;;;;;;2.53;2.33;;;;;;;;;;5042913;28;20226;-65
2022/09/04 04:13:55;;;;;;;2.50;2.30;;;;;;;;;;5035919;28;20248;-65
2022/09/04 04:16:39;;;;;;;2.83;2.50;;;;;;;;;;5033430;28;20214;-65
2022/09/04 04:19:30;;;;;;;2.80;2.60;;;;;;;;;;5053388;28;20190;-68
2022/09/04 04:22:06;;;;;;;2.50;2.30;;;;;;;;;;5055307;28;20198;-65
2022/09/04 04:24:38;;;;;;;2.47;2.27;;;;;;;;;;5052547;28;20193;-65
2022/09/04 04:27:16;;;;;;;2.43;2.23;;;;;;;;;;5046278;28;20214;-65
2022/09/04 04:30:02;;;;;;;3.10;2.40;;;;;;;;;;5046799;28;20237;-65
2022/09/04 04:32:31;;;;;;;2.90;2.60;;;;;;;;;;5035344;28;20202;-65
2022/09/04 04:35:11;;;;;;;2.27;2.07;;;;;;;;;;5029803;28;20727;-65
2022/09/04 04:38:07;;;;;;;2.80;2.30;;;;;;;;;;5045728;28;20210;-65
2022/09/04 04:41:01;;;;;;;2.40;2.20;;;;;;;;;;5045297;28;20190;-65
2022/09/04 04:43:53;;;;;;;2.30;2.10;;;;;;;;;;5044320;28;20190;-65
2022/09/04 04:46:39;;;;;;;2.37;2.17;;;;;;;;;;5055896;28;20194;-62
2022/09/04 04:49:19;;;;;;;2.67;2.13;;;;;;;;;;5050051;28;20186;-63
2022/09/04 04:51:59;;;;;;;2.80;2.60;;;;;;;;;;5019111;28;20333;-63
2022/09/04 04:54:43;;;;;;;2.90;2.70;;;;;;;;;;5026082;28;20194;-63
2022/09/04 04:57:35;;;;;;;2.60;2.40;;;;;;;;;;5049401;28;20228;-63
2022/09/04 05:00:18;;;;;;;3.03;2.80;;;;;;;;;;5040475;28;20222;-63
2022/09/04 05:03:20;;;;;;;2.90;2.57;;;;;;;;;;5065534;28;20591;-63
2022/09/04 05:05:52;;;;;;;3.40;2.73;;;;;;;;;;5030686;28;20201;-62
2022/09/04 05:08:43;;;;;;;3.70;2.57;;;;;;;;;;5034437;28;20276;-62
2022/09/04 05:11:46;;;;;;;3.83;2.60;;;;;;;;;;5049348;28;20302;-63
2022/09/04 05:14:34;;;;;;;4.77;2.30;;;;;;;;;;5048981;28;20214;-63
2022/09/04 05:17:28;;;;;;;2.47;2.27;;;;;;;;;;5051549;28;20201;-62
2022/09/04 05:20:14;;;;;;;2.73;2.50;;;;;;;;;;5057158;28;20230;-63
2022/09/04 05:23:01;;;;;;;2.67;2.47;;;;;;;;;;5047484;28;20236;-63
2022/09/04 05:25:41;;;;;;;2.40;2.30;;;;;;;;;;5044551;28;20197;-63
2022/09/04 05:28:28;;;;;;;2.60;2.40;;;;;;;;;;5050121;28;20198;-63
2022/09/04 05:31:16;;;;;;;2.57;2.37;;;;;;;;;;5066190;28;20207;-63
2022/09/04 05:34:22;;;;;;;2.80;2.40;;;;;;;;;;5078635;28;20814;-63
2022/09/04 05:37:23;;;;;;;3.73;2.30;;;;;;;;;;4970178;28;20229;-62
2022/09/04 05:40:23;;;;;;;4.17;2.57;;;;;;;;;;5039823;28;20229;-63
2022/09/04 05:43:12;;;;;;;2.57;2.37;;;;;;;;;;5060084;28;20206;-62
2022/09/04 05:45:46;;;;;;;2.73;2.30;;;;;;;;;;5047680;28;20322;-66
2022/09/04 05:48:34;;;;;;;2.53;2.33;;;;;;;;;;5059174;28;20628;-63
2022/09/04 05:51:21;;;;;;;5.07;2.30;;;;;;;;;;5046014;28;20249;-62
2022/09/04 05:54:09;;;;;;;2.90;2.57;;;;;;;;;;5054025;28;20252;-63
2022/09/04 05:57:21;;;;;;;2.50;2.30;;;;;;;;;;5055521;28;20622;-62
2022/09/04 06:00:07;;;;;;;5.50;2.40;;;;;;;;;;5066484;28;20202;-62
2022/09/04 06:02:56;;;;;;;2.50;2.30;;;;;;;;;;5035153;28;20246;-62
2022/09/04 06:05:33;;;;;;;2.47;2.20;;;;;;;;;;5047139;28;20202;-62
2022/09/04 06:08:22;;;;;;;2.30;2.10;;;;;;;;;;5052183;28;20197;-62
2022/09/04 06:11:05;;;;;;;2.70;2.30;;;;;;;;;;5040351;28;20210;-63
2022/09/04 06:13:49;;;;;;;2.10;1.90;;;;;;;;;;5057474;28;20201;-62
2022/09/04 06:16:18;;;;;;;4.37;2.30;;;;;;;;;;5053203;28;20189;-62
2022/09/04 06:19:05;;;;;;;2.67;2.10;;;;;;;;;;5048734;28;20220;-62
2022/09/04 06:22:05;;;;;;;2.60;2.40;;;;;;;;;;5050452;28;20193;-62
2022/09/04 06:24:49;;;;;;;2.70;2.30;;;;;;;;;;5036279;28;20743;-63
2022/09/04 06:27:37;;;;;;;3.90;2.40;;;;;;;;;;5049296;28;20622;-61
2022/09/04 06:30:12;;;;;;;2.40;2.20;;;;;;;;;;5048162;28;20638;-62
2022/09/04 06:33:20;;;;;;;2.10;1.93;;;;;;;;;;5063256;28;20190;-62
2022/09/04 06:35:55;;;;;;;3.90;1.90;;;;;;;;;;5026138;28;20207;-62
2022/09/04 06:38:31;;;;;;;2.77;2.20;;;;;;;;;;5020805;28;20298;-62
2022/09/04 06:41:01;;;;;;;2.10;2.00;;;;;;;;;;5025815;28;20206;-62
2022/09/04 06:43:43;;;;;;;2.37;2.17;;;;;;;;;;5023823;28;20226;-62
2022/09/04 06:46:18;;;;;;;2.33;2.13;;;;;;;;;;5030163;28;20230;-62
2022/09/04 06:49:16;;;;;;;3.07;2.13;;;;;;;;;;5023629;28;20644;-62
2022/09/04 06:52:07;;;;;;;2.40;2.20;;;;;;;;;;5042056;28;20703;-62
2022/09/04 06:54:55;;;;;;;2.97;2.17;;;;;;;;;;5046993;28;20191;-63
2022/09/04 06:58:02;;;;;;;2.70;2.50;;;;;;;;;;5046439;28;20210;-62
2022/09/04 07:00:34;;;;;;;2.83;2.10;;;;;;;;;;5039263;28;20202;-62
2022/09/04 07:03:24;;;;;;;4.27;2.33;;;;;;;;;;5034847;28;20749;-62
2022/09/04 07:05:51;;;;;;;2.40;2.20;;;;;;;;;;5036153;28;20221;-62
2022/09/04 07:08:35;;;;;;;2.07;1.97;;;;;;;;;;5042192;28;20208;-62
2022/09/04 07:11:19;;;;;;;2.73;2.30;;;;;;;;;;5039793;28;20257;-62
2022/09/04 07:14:15;;;;;;;2.43;2.23;;;;;;;;;;5025391;28;20217;-62
2022/09/04 07:17:20;;;;;;;3.10;2.70;;;;;;;;;;5047257;28;20695;-62
2022/09/04 07:20:07;;;;;;;2.60;2.20;;;;;;;;;;4997967;28;20197;-62
2022/09/04 07:23:01;;;;;;;4.03;2.53;;;;;;;;;;5015839;28;20267;-62
2022/09/04 07:25:35;;;;;;;2.50;2.30;;;;;;;;;;4996259;28;20207;-63
2022/09/04 07:28:35;;;;;;;2.97;2.63;;;;;;;;;;4999550;28;20634;-63
2022/09/04 07:31:21;;;;;;;4.47;2.60;;;;;;;;;;5002988;28;20597;-63
2022/09/04 07:34:14;;;;;;;2.50;2.30;;;;;;;;;;4996755;28;20220;-63
2022/09/04 07:36:53;;;;;;;2.50;2.30;;;;;;;;;;4990271;28;20196;-63
2022/09/04 07:40:03;;;;;;;2.70;2.50;;;;;;;;;;4987347;28;20707;-62
2022/09/04 07:42:53;;;;;;;3.80;2.30;;;;;;;;;;4979074;28;20325;-63
2022/09/04 07:45:28;;;;;;;4.57;2.60;;;;;;;;;;4935040;28;20618;-62
2022/09/04 07:48:05;;;;;;;3.00;2.70;;;;;;;;;;4975028;28;20223;-62
2022/09/04 07:50:49;;;;;;;3.60;2.90;;;;;;;;;;5003865;28;20222;-62
2022/09/04 07:53:29;;;;;;;3.20;2.90;;;;;;;;;;5030802;28;20194;-63
2022/09/04 07:56:25;;;;;;;4.07;3.30;;;;;;;;;;5028888;28;20198;-62
2022/09/04 07:59:19;;;;;;;3.67;2.60;;;;;;;;;;4984432;28;20212;-62
2022/09/04 08:01:47;;;;;;;3.27;2.80;;;;;;;;;;5021129;28;20640;-62
2022/09/04 08:04:39;;;;;;;4.27;3.03;;;;;;;;;;5026867;28;20199;-62
2022/09/04 08:07:22;;;;;;;4.30;3.30;;;;;;;;;;5025026;28;20288;-62
2022/09/04 08:10:23;;;;;;;3.97;3.17;;;;;;;;;;5038445;28;20203;-62
2022/09/04 08:13:11;;;;;;;4.20;2.80;;;;;;;;;;5013135;28;20248;-61
2022/09/04 08:16:10;;;;;;;3.10;2.80;;;;;;;;;;5016907;28;20227;-62
2022/09/04 08:19:00;;;;;;;4.37;3.30;;;;;;;;;;5013993;28;20226;-62
2022/09/04 08:21:45;;;;;;;3.70;3.17;;;;;;;;;;5021490;28;20191;-62
2022/09/04 08:24:37;;;;;;;3.23;2.90;;;;;;;;;;5024636;28;20214;-62
2022/09/04 08:27:24;;;;;;;3.80;3.30;;;;;;;;;;5022368;28;20207;-62
2022/09/04 08:30:04;;;;;;;4.80;3.50;;;;;;;;;;5024830;28;20187;-62
2022/09/04 08:32:44;;;;;;;4.13;3.33;;;;;;;;;;5010838;28;20219;-63
2022/09/04 08:35:28;;;;;;;5.70;3.40;;;;;;;;;;5014436;28;20191;-63
2022/09/04 08:38:03;;;;;;;5.13;3.27;;;;;;;;;;5015366;28;20225;-61
2022/09/04 08:40:53;;;;;;;3.83;3.30;;;;;;;;;;5010030;28;20191;-61
2022/09/04 08:43:45;;;;;;;4.87;4.10;;;;;;;;;;5018486;28;20191;-61
2022/09/04 08:46:43;;;;;;;4.50;4.10;;;;;;;;;;5026511;28;20262;-61
2022/09/04 08:49:35;;;;;;;8.47;4.30;;;;;;;;;;5057486;28;20225;-62
2022/09/04 08:52:21;;;;;;;6.03;3.77;;;;;;;;;;5047209;28;20210;-62
2022/09/04 08:55:06;;;;;;;5.10;4.10;;;;;;;;;;5035966;28;20186;-62
2022/09/04 08:57:54;;;;;;;10.50;4.87;;;;;;;;;;5041768;28;20198;-62
2022/09/04 09:00:39;;;;;;;5.30;4.10;;;;;;;;;;5041799;28;20198;-64
2022/09/04 09:03:36;;;;;;;5.37;4.13;;;;;;;;;;5044435;28;20218;-62
2022/09/04 09:06:15;;;;;;;10.10;4.20;;;;;;;;;;5039579;28;20190;-62
2022/09/04 09:09:18;;;;;;;10.33;3.90;;;;;;;;;;5052275;28;20207;-62
2022/09/04 09:12:07;;;;;;;7.53;4.03;;;;;;;;;;5019272;28;20299;-62
2022/09/04 09:14:40;;;;;;;6.00;3.83;;;;;;;;;;4992350;28;20206;-62
2022/09/04 09:17:37;;;;;;;7.43;3.60;;;;;;;;;;5039896;28;20198;-62
2022/09/04 09:20:24;;;;;;;8.53;3.73;;;;;;;;;;5012204;28;20204;-62
2022/09/04 09:23:14;;;;;;;4.37;3.40;;;;;;;;;;5047510;28;20631;-63
2022/09/04 09:25:54;;;;;;;3.60;3.20;;;;;;;;;;5040445;28;20218;-62
2022/09/04 09:28:24;;;;;;;5.90;3.73;;;;;;;;;;5044651;28;20749;-63
2022/09/04 09:31:11;;;;;;;6.37;3.73;;;;;;;;;;5030228;28;20203;-62
2022/09/04 09:33:41;;;;;;;4.00;3.20;;;;;;;;;;5038123;28;20805;-63
2022/09/04 09:36:21;;;;;;;3.23;2.93;;;;;;;;;;5045625;28;20211;-64
2022/09/04 09:39:11;;;;;;;3.47;2.60;;;;;;;;;;5044183;28;20214;-64
2022/09/04 09:42:12;;;;;;;2.93;2.63;;;;;;;;;;5044242;28;20229;-63
2022/09/04 09:44:59;;;;;;;2.80;2.37;;;;;;;;;;5046349;28;20238;-63
2022/09/04 09:47:46;;;;;;;2.43;2.23;;;;;;;;;;5027358;28;20217;-63
2022/09/04 09:50:39;;;;;;;2.47;2.27;;;;;;;;;;5042342;28;20198;-63
2022/09/04 09:53:09;;;;;;;4.43;2.63;;;;;;;;;;5061927;28;20229;-64
2022/09/04 09:55:55;;;;;;;2.50;2.30;;;;;;;;;;5043399;28;20804;-64
2022/09/04 09:58:50;;;;;;;3.50;2.50;;;;;;;;;;5049083;28;20202;-64
2022/09/04 10:01:38;;;;;;;2.93;2.73;;;;;;;;;;5030592;28;20210;-64
2022/09/04 10:04:27;;;;;;;5.33;2.43;;;;;;;;;;5045823;28;20195;-64
2022/09/04 10:07:17;;;;;;;5.80;2.47;;;;;;;;;;5037532;28;20524;-66
2022/09/04 10:09:49;;;;;;;2.83;2.30;;;;;;;;;;5037194;28;20191;-65
2022/09/04 10:12:39;;;;;;;3.37;1.93;;;;;;;;;;5039234;28;20215;-66
2022/09/04 10:15:30;;;;;;;2.43;1.80;;;;;;;;;;5028839;28;20200;-65
2022/09/04 10:18:16;;;;;;;2.27;2.00;;;;;;;;;;5047684;28;20190;-67
2022/09/04 10:21:09;;;;;;;5.33;1.70;;;;;;;;;;5045566;28;20604;-65
2022/09/04 10:23:54;;;;;;;2.03;1.83;;;;;;;;;;5033033;28;20194;-67
2022/09/04 10:26:51;;;;;;;1.67;1.57;;;;;;;;;;5036039;28;20203;-65
2022/09/04 10:29:58;;;;;;;1.50;1.40;;;;;;;;;;5037856;28;20210;-66
2022/09/04 10:32:32;;;;;;;2.23;1.67;;;;;;;;;;5043458;28;20202;-66
2022/09/04 10:35:24;;;;;;;1.83;1.43;;;;;;;;;;5046688;28;20293;-66
2022/09/04 10:38:16;;;;;;;4.80;1.90;;;;;;;;;;5042036;28;20191;-66
2022/09/04 10:41:07;;;;;;;2.50;1.23;;;;;;;;;;5043578;28;20654;-66
2022/09/04 10:43:57;;;;;;;3.83;1.80;;;;;;;;;;5044549;28;20602;-66
2022/09/04 10:46:51;;;;;;;2.20;1.33;;;;;;;;;;5046465;28;20533;-65
2022/09/04 10:49:40;;;;;;;1.60;1.27;;;;;;;;;;5042160;28;20771;-66
2022/09/04 10:52:30;;;;;;;1.40;1.30;;;;;;;;;;5042568;28;20202;-66
2022/09/04 10:55:03;;;;;;;1.50;1.40;;;;;;;;;;5045203;28;20804;-66
2022/09/04 10:57:52;;;;;;;1.60;1.40;;;;;;;;;;5030164;28;20203;-66
2022/09/04 11:00:48;;;;;;;1.53;1.43;;;;;;;;;;5045525;28;20194;-66
2022/09/04 11:03:46;;;;;;;1.60;1.30;;;;;;;;;;5036091;28;20685;-66
2022/09/04 11:06:30;;;;;;;1.83;1.73;;;;;;;;;;5045878;28;20193;-65
2022/09/04 11:09:20;;;;;;;1.67;1.30;;;;;;;;;;5042853;28;20616;-66
2022/09/04 11:12:01;;;;;;;2.77;1.13;;;;;;;;;;5041945;28;20215;-67
2022/09/04 11:14:54;;;;;;;1.20;1.00;;;;;;;;;;5039453;28;20210;-66
2022/09/04 11:17:41;;;;;;;2.40;1.37;;;;;;;;;;5043823;28;20776;-67
2022/09/04 11:20:25;;;;;;;1.50;1.40;;;;;;;;;;5040257;28;20202;-66
2022/09/04 11:23:14;;;;;;;1.33;1.20;;;;;;;;;;5047041;28;20202;-67
2022/09/04 11:25:48;;;;;;;2.70;1.30;;;;;;;;;;5027807;28;20806;-66
2022/09/04 11:28:39;;;;;;;1.87;1.40;;;;;;;;;;5042156;28;20191;-66
2022/09/04 11:31:30;;;;;;;2.70;1.20;;;;;;;;;;5034440;28;20202;-66
2022/09/04 11:34:32;;;;;;;1.60;1.20;;;;;;;;;;5040273;28;20190;-66
2022/09/04 11:37:21;;;;;;;1.43;1.13;;;;;;;;;;5046006;28;20202;-66
2022/09/04 11:40:08;;;;;;;1.37;1.27;;;;;;;;;;5046287;28;20209;-66
2022/09/04 11:42:56;;;;;;;1.13;1.03;;;;;;;;;;5046095;28;20226;-66
2022/09/04 11:45:49;;;;;;;1.40;1.23;;;;;;;;;;5042119;28;20245;-66
2022/09/04 11:48:25;;;;;;;1.30;1.20;;;;;;;;;;5018542;28;20297;-67
2022/09/04 11:51:17;;;;;;;1.50;1.40;;;;;;;;;;5042326;28;20301;-67
2022/09/04 11:54:09;;;;;;;1.57;1.33;;;;;;;;;;5030978;28;20221;-65
2022/09/04 11:57:01;;;;;;;2.37;1.37;;;;;;;;;;5040271;28;20198;-68
2022/09/04 11:59:48;;;;;;;2.83;1.47;;;;;;;;;;5038045;28;20210;-67
2022/09/04 12:02:37;;;;;;;1.77;1.40;;;;;;;;;;5041113;28;20792;-68
2022/09/04 12:05:19;;;;;;;2.50;1.03;;;;;;;;;;5044366;28;20265;-67
2022/09/04 12:08:11;;;;;;;2.03;1.20;;;;;;;;;;5046131;28;20214;-66
2022/09/04 12:11:02;;;;;;;2.20;1.53;;;;;;;;;;5029700;28;20800;-67
2022/09/04 12:13:38;;;;;;;1.60;1.40;;;;;;;;;;5037041;28;20234;-67
2022/09/04 12:16:27;;;;;;;2.60;1.40;;;;;;;;;;5037964;28;20186;-67
2022/09/04 12:19:19;;;;;;;1.50;1.37;;;;;;;;;;5034682;28;20213;-66
2022/09/04 12:22:24;;;;;;;1.40;1.23;;;;;;;;;;5038656;28;20219;-66
2022/09/04 12:24:57;;;;;;;2.57;1.53;;;;;;;;;;4995007;28;20222;-66
2022/09/04 12:27:45;;;;;;;2.80;1.50;;;;;;;;;;5031908;28;20279;-68
2022/09/04 12:30:22;;;;;;;2.43;1.60;;;;;;;;;;5042333;28;20205;-64
2022/09/04 12:33:10;;;;;;;3.00;1.50;;;;;;;;;;5023330;28;20300;-63
2022/09/04 12:35:59;;;;;;;2.10;1.80;;;;;;;;;;5043037;28;20690;-63
2022/09/04 12:38:49;;;;;;;2.93;1.50;;;;;;;;;;5033219;28;20639;-64
2022/09/04 12:41:34;;;;;;;1.70;1.60;;;;;;;;;;5010634;28;20195;-64
2022/09/04 12:44:14;;;;;;;1.90;1.67;;;;;;;;;;5044732;28;20651;-63
2022/09/04 12:46:54;;;;;;;1.93;1.73;;;;;;;;;;5042761;28;20194;-63
2022/09/04 12:49:31;;;;;;;1.70;1.60;;;;;;;;;;5035356;28;20217;-62
2022/09/04 12:52:21;;;;;;;1.83;1.60;;;;;;;;;;5063567;28;20587;-63
2022/09/04 12:55:02;;;;;;;2.13;1.37;;;;;;;;;;5056782;28;20205;-63
2022/09/04 12:57:54;;;;;;;2.73;1.93;;;;;;;;;;5047017;28;20225;-62
2022/09/04 13:00:39;;;;;;;1.97;1.70;;;;;;;;;;5044285;28;20624;-62
2022/09/04 13:03:36;;;;;;;2.03;1.83;;;;;;;;;;5040060;28;20891;-62
2022/09/04 13:06:31;;;;;;;3.20;1.70;;;;;;;;;;5036836;28;20214;-63
2022/09/04 13:09:40;;;;;;;1.70;1.60;;;;;;;;;;5047227;28;20209;-62
2022/09/04 13:12:31;;;;;;;2.10;1.67;;;;;;;;;;5006851;28;20270;-62
2022/09/04 13:15:02;;;;;;;1.80;1.70;;;;;;;;;;5043982;28;20206;-62
2022/09/04 13:17:47;;;;;;;1.83;1.63;;;;;;;;;;5043033;28;20190;-62
2022/09/04 13:20:39;;;;;;;1.40;1.30;;;;;;;;;;5052194;28;20185;-62
2022/09/04 13:23:27;;;;;;;1.80;1.70;;;;;;;;;;5050155;28;20187;-62
2022/09/04 13:26:19;;;;;;;1.50;1.40;;;;;;;;;;5044642;28;20305;-62
2022/09/04 13:28:59;;;;;;;1.87;1.40;;;;;;;;;;5050740;28;20198;-62
2022/09/04 13:31:46;;;;;;;1.70;1.40;;;;;;;;;;5046348;28;20203;-62
2022/09/04 13:34:47;;;;;;;2.70;1.67;;;;;;;;;;5045493;28;20667;-62
2022/09/04 13:37:22;;;;;;;1.77;1.57;;;;;;;;;;5046478;28;20229;-62
2022/09/04 13:40:13;;;;;;;2.07;1.60;;;;;;;;;;5045765;28;20210;-62
2022/09/04 13:43:02;;;;;;;1.73;1.40;;;;;;;;;;5048974;28;20252;-62
2022/09/04 13:45:33;;;;;;;2.03;1.60;;;;;;;;;;5045143;28;20275;-62
2022/09/04 13:48:23;;;;;;;1.63;1.33;;;;;;;;;;5033177;28;20196;-62
2022/09/04 13:50:57;;;;;;;2.70;1.50;;;;;;;;;;5038885;28;20293;-62
2022/09/04 13:53:37;;;;;;;1.40;1.30;;;;;;;;;;5044611;28;20267;-62
2022/09/04 13:56:21;;;;;;;1.63;1.53;;;;;;;;;;5048489;28;20193;-62
2022/09/04 13:58:59;;;;;;;2.20;1.70;;;;;;;;;;5046970;28;20194;-62
2022/09/04 14:01:31;;;;;;;2.37;1.77;;;;;;;;;;5056375;28;20287;-62
2022/09/04 14:04:12;;;;;;;1.90;1.80;;;;;;;;;;5044442;28;20293;-62
2022/09/04 14:06:43;;;;;;;2.53;2.10;;;;;;;;;;5038151;28;20212;-62
2022/09/04 14:09:12;;;;;;;1.90;1.70;;;;;;;;;;5025131;28;20206;-62
2022/09/04 14:11:57;;;;;;;2.10;1.90;;;;;;;;;;5043465;28;20194;-62
2022/09/04 14:14:40;;;;;;;1.93;1.77;;;;;;;;;;5042924;28;20206;-62
2022/09/04 14:17:10;;;;;;;1.80;1.70;;;;;;;;;;5055805;28;20264;-62
2022/09/04 14:19:56;;;;;;;2.70;1.73;;;;;;;;;;5068596;28;20620;-62
2022/09/04 14:22:57;;;;;;;2.30;1.60;;;;;;;;;;5048542;28;20252;-63
2022/09/04 14:25:33;;;;;;;1.80;1.50;;;;;;;;;;5041887;28;20233;-63
2022/09/04 14:28:33;;;;;;;1.70;1.60;;;;;;;;;;5046277;28;20190;-63
2022/09/04 14:31:15;;;;;;;2.30;1.50;;;;;;;;;;5047941;28;20651;-62
2022/09/04 14:34:03;;;;;;;1.83;1.60;;;;;;;;;;5046001;28;20250;-62
2022/09/04 14:36:35;;;;;;;1.77;1.60;;;;;;;;;;5039361;28;20222;-63
2022/09/04 14:39:27;;;;;;;2.90;1.60;;;;;;;;;;5051682;28;20219;-63
2022/09/04 14:42:25;;;;;;;1.50;1.37;;;;;;;;;;5037938;28;20233;-62
2022/09/04 14:45:22;;;;;;;1.47;1.37;;;;;;;;;;5043117;28;20222;-63
2022/09/04 14:48:03;;;;;;;2.97;1.30;;;;;;;;;;5039862;28;20194;-63
2022/09/04 14:50:44;;;;;;;1.50;1.40;;;;;;;;;;5034413;28;20215;-62
2022/09/04 14:53:18;;;;;;;1.80;1.70;;;;;;;;;;5053453;28;20241;-63
2022/09/04 14:56:08;;;;;;;1.67;1.57;;;;;;;;;;5035264;28;20205;-63
2022/09/04 14:58:43;;;;;;;1.47;1.37;;;;;;;;;;5043744;28;20194;-63
2022/09/04 15:01:24;;;;;;;1.50;1.40;;;;;;;;;;5046972;28;20215;-63
2022/09/04 15:04:01;;;;;;;1.50;1.40;;;;;;;;;;5023662;28;20210;-62
2022/09/04 15:06:44;;;;;;;1.73;1.30;;;;;;;;;;5047373;28;20205;-62
2022/09/04 15:09:46;;;;;;;1.40;1.30;;;;;;;;;;5035402;28;20198;-62
2022/09/04 15:12:26;;;;;;;1.50;1.40;;;;;;;;;;5021375;28;20202;-63
2022/09/04 15:15:10;;;;;;;1.53;1.43;;;;;;;;;;5006504;28;20661;-63
2022/09/04 15:17:50;;;;;;;1.40;1.30;;;;;;;;;;5041542;28;20191;-63
2022/09/04 15:20:26;;;;;;;1.60;1.30;;;;;;;;;;5045318;28;20217;-63
2022/09/04 15:23:01;;;;;;;1.73;1.53;;;;;;;;;;5033931;28;20210;-63
2022/09/04 15:25:55;;;;;;;1.60;1.50;;;;;;;;;;5028428;28;20205;-63
2022/09/04 15:28:48;;;;;;;1.40;1.30;;;;;;;;;;5039988;28;20683;-63
2022/09/04 15:31:27;;;;;;;1.30;1.20;;;;;;;;;;5043608;28;20203;-62
2022/09/04 15:34:22;;;;;;;1.67;1.20;;;;;;;;;;5047744;28;20710;-63
2022/09/04 15:36:54;;;;;;;1.37;1.20;;;;;;;;;;5034811;28;20310;-63
2022/09/04 15:39:47;;;;;;;1.40;1.30;;;;;;;;;;5051401;28;20577;-62
2022/09/04 15:42:31;;;;;;;1.30;1.20;;;;;;;;;;5034549;28;20198;-63
2022/09/04 15:45:09;;;;;;;1.30;1.20;;;;;;;;;;5044715;28;20230;-62
2022/09/04 15:47:55;;;;;;;1.30;1.17;;;;;;;;;;5042419;28;20672;-63
2022/09/04 15:50:29;;;;;;;1.30;1.13;;;;;;;;;;5041775;28;20202;-63
2022/09/04 15:53:19;;;;;;;1.50;1.40;;;;;;;;;;5036687;28;20656;-63
2022/09/04 15:56:13;;;;;;;1.40;1.30;;;;;;;;;;5054809;28;20585;-63
2022/09/04 15:59:00;;;;;;;1.97;1.47;;;;;;;;;;5043621;28;20215;-63
2022/09/04 16:01:36;;;;;;;1.70;1.60;;;;;;;;;;5030802;28;20199;-63
2022/09/04 16:04:14;;;;;;;1.53;1.43;;;;;;;;;;5029906;28;20198;-63
2022/09/04 16:06:48;;;;;;;3.00;1.53;;;;;;;;;;5033502;28;20219;-63
2022/09/04 16:09:34;;;;;;;1.53;1.27;;;;;;;;;;5028053;28;20198;-63
2022/09/04 16:12:21;;;;;;;2.00;1.50;;;;;;;;;;5040885;28;20287;-61
2022/09/04 16:15:02;;;;;;;1.73;1.63;;;;;;;;;;5030749;28;20264;-61
2022/09/04 16:17:38;;;;;;;1.43;1.20;;;;;;;;;;5042313;28;20202;-63
2022/09/04 16:20:20;;;;;;;1.33;1.23;;;;;;;;;;5061577;28;20219;-63
2022/09/04 16:22:59;;;;;;;1.40;1.30;;;;;;;;;;5043733;28;20202;-63
2022/09/04 16:25:41;;;;;;;1.43;1.30;;;;;;;;;;5023933;28;20205;-63
2022/09/04 16:28:32;;;;;;;2.30;1.37;;;;;;;;;;5045455;28;20362;-68
2022/09/04 16:31:11;;;;;;;1.47;1.37;;;;;;;;;;5048023;28;20213;-68
2022/09/04 16:33:48;;;;;;;1.50;1.33;;;;;;;;;;5054847;28;20761;-68